createdAt,value
2022-08-19T00:01:41.427Z,100953.09
2022-08-19T00:04:47.618Z,100960.16
2022-08-19T00:07:51.903Z,100965.78
2022-08-19T00:10:55.581Z,100971.41
2022-08-19T00:14:00.663Z,100972.56
2022-08-19T00:17:05.118Z,100969.22
2022-08-19T00:20:11.719Z,100965.28
2022-08-19T00:23:16.083Z,100960.78
2022-08-19T00:26:19.785Z,100957.47
2022-08-19T00:29:26.373Z,100953.50
2022-08-19T00:32:30.063Z,100963.91
2022-08-19T00:35:34.567Z,100962.22
2022-08-19T00:38:40.265Z,100955.78
2022-08-19T00:41:47.677Z,100952.16
2022-08-19T00:44:53.168Z,100958.09
2022-08-19T00:47:57.067Z,100946.00
2022-08-19T00:51:01.095Z,100959.22
2022-08-19T00:54:05.947Z,100962.03
2022-08-19T00:57:14.310Z,100945.19
2022-08-19T01:00:21.224Z,100949.97
2022-08-19T01:03:25.202Z,100941.84
2022-08-19T01:06:29.155Z,100939.03
2022-08-19T01:09:33.570Z,100934.56
2022-08-19T01:12:37.525Z,100935.69
2022-08-19T01:15:46.795Z,100935.69
2022-08-19T01:18:51.179Z,100921.97
2022-08-19T01:22:14.030Z,100914.34
2022-08-19T01:25:22.953Z,100919.16
2022-08-19T01:28:34.300Z,100922.28
2022-08-19T01:31:44.111Z,100918.09
2022-08-19T01:34:48.199Z,100911.66
2022-08-19T01:37:54.463Z,100923.72
2022-08-19T01:40:59.625Z,100929.34
2022-08-19T01:44:18.274Z,100929.63
2022-08-19T01:47:22.676Z,100919.53
2022-08-19T01:50:26.801Z,100922.34
2022-08-19T01:53:33.718Z,100912.28
2022-08-19T01:56:39.323Z,100917.91
2022-08-19T01:59:44.948Z,100916.22
2022-08-19T02:02:48.876Z,100921.84
2022-08-19T02:05:56.912Z,100921.00
2022-08-19T02:09:01.166Z,100912.34
2022-08-19T02:12:07.285Z,100912.03
2022-08-19T02:15:12.415Z,100910.41
2022-08-19T02:18:16.641Z,100906.75
2022-08-19T02:21:22.042Z,100909.53
2022-08-19T02:24:25.742Z,100911.31
2022-08-19T02:27:30.767Z,100911.31
2022-08-19T02:30:34.713Z,100905.16
2022-08-19T02:33:38.436Z,100914.09
2022-08-19T02:36:42.701Z,100918.06
2022-08-19T02:39:45.454Z,100917.22
2022-08-19T02:42:50.662Z,100897.88
2022-08-19T02:45:55.074Z,100887.50
2022-08-19T02:49:03.984Z,100885.53
2022-08-19T02:52:07.754Z,100896.22
2022-08-19T02:55:11.520Z,100895.38
2022-08-19T02:58:17.951Z,100894.56
2022-08-19T03:01:27.180Z,100888.94
2022-08-19T03:04:31.524Z,100894.88
2022-08-19T03:07:35.303Z,100901.63
2022-08-19T03:10:44.998Z,100891.25
2022-08-19T03:13:51.774Z,100889.56
2022-08-19T03:16:55.546Z,100899.13
2022-08-19T03:19:59.506Z,100905.88
2022-08-19T03:23:03.295Z,100918.25
2022-08-19T03:26:15.966Z,100919.38
2022-08-19T03:29:30.678Z,100913.78
2022-08-19T03:32:34.898Z,100923.00
2022-08-19T03:35:38.708Z,100923.31
2022-08-19T03:38:46.078Z,100930.09
2022-08-19T03:42:29.243Z,100929.25
2022-08-19T03:45:17.367Z,100939.66
2022-08-19T03:48:21.078Z,100937.97
2022-08-19T03:51:30.738Z,100941.91
2022-08-19T03:54:35.212Z,100935.47
2022-08-19T03:57:38.942Z,100934.66
2022-08-19T04:00:45.547Z,100941.91
2022-08-19T04:03:50.282Z,100935.75
2022-08-19T04:06:54.564Z,100944.16
2022-08-19T04:09:58.263Z,100936.88
2022-08-19T04:13:01.949Z,100939.69
2022-08-19T04:16:08.288Z,100943.66
2022-08-19T04:19:12.289Z,100941.97
2022-08-19T04:22:16.335Z,100949.56
2022-08-19T04:25:20.062Z,100947.06
2022-08-19T04:28:24.800Z,100959.13
2022-08-19T04:31:32.446Z,100958.31
2022-08-19T04:34:36.126Z,100960.25
2022-08-19T04:37:59.794Z,100961.41
2022-08-19T04:41:23.045Z,100960.56
2022-08-19T04:44:27.502Z,100962.56
2022-08-19T04:47:48.123Z,100968.47
2022-08-19T04:50:59.550Z,100962.84
2022-08-19T04:54:04.723Z,100955.56
2022-08-19T04:57:10.935Z,100966.28
2022-08-19T05:00:15.483Z,100970.72
2022-08-19T05:03:20.706Z,100969.09
2022-08-19T05:06:25.846Z,100967.41
2022-08-19T05:09:33.110Z,100973.00
2022-08-19T05:12:53.947Z,100985.06
2022-08-19T05:15:59.490Z,100978.94
2022-08-19T05:19:22.274Z,100981.75
2022-08-19T05:22:36.644Z,100975.31
2022-08-19T05:25:42.083Z,100985.38
2022-08-19T05:28:46.043Z,100990.47
2022-08-19T05:31:51.484Z,100992.13
2022-08-19T05:34:56.836Z,100986.81
2022-08-19T05:38:00.546Z,100976.72
2022-08-19T05:41:09.467Z,100986.81
2022-08-19T05:44:13.188Z,100983.19
2022-08-19T05:47:19.814Z,100977.88
2022-08-19T05:50:25.161Z,100979.84
2022-08-19T05:53:28.902Z,100973.38
2022-08-19T05:56:33.219Z,100972.56
2022-08-19T05:59:37.408Z,100972.56
2022-08-19T06:02:43.659Z,100970.88
2022-08-19T06:05:51.651Z,100972.56
2022-08-19T06:08:55.962Z,100958.00
2022-08-19T06:12:03.503Z,100944.81
2022-08-19T06:15:11.230Z,100944.50
2022-08-19T06:18:15.575Z,100942.81
2022-08-19T06:21:22.040Z,100948.44
2022-08-19T06:24:27.653Z,100952.41
2022-08-19T06:27:32.931Z,100955.50
2022-08-19T06:30:37.986Z,100946.78
2022-08-19T06:33:41.903Z,100950.72
2022-08-19T06:36:49.753Z,100950.72
2022-08-19T06:39:53.755Z,100953.84
2022-08-19T06:43:00.045Z,100951.34
2022-08-19T06:46:05.220Z,100950.19
2022-08-19T06:49:11.252Z,100951.34
2022-08-19T06:52:17.001Z,100946.84
2022-08-19T06:55:20.820Z,100950.78
2022-08-19T06:58:24.528Z,100958.91
2022-08-19T07:01:28.943Z,100962.00
2022-08-19T07:04:33.750Z,100958.38
2022-08-19T07:07:38.879Z,100964.00
2022-08-19T07:10:47.803Z,100963.16
2022-08-19T07:13:52.177Z,100963.16
2022-08-19T07:16:59.083Z,100983.94
2022-08-19T07:20:06.768Z,100985.38
2022-08-19T07:23:16.227Z,100986.75
2022-08-19T07:26:27.817Z,100993.78
2022-08-19T07:29:34.028Z,100994.34
2022-08-19T07:32:39.169Z,100993.47
2022-08-19T07:35:43.091Z,100993.47
2022-08-19T07:38:51.570Z,100999.94
2022-08-19T07:41:58.660Z,101007.50
2022-08-19T07:45:02.463Z,101018.41
2022-08-19T07:48:06.566Z,101015.31
2022-08-19T07:51:14.358Z,101023.44
2022-08-19T07:54:23.410Z,101022.00
2022-08-19T07:57:27.185Z,101027.59
2022-08-19T08:00:31.043Z,101027.59
2022-08-19T08:03:52.017Z,101032.09
2022-08-19T08:07:13.511Z,101035.41
2022-08-19T08:10:20.541Z,101029.50
2022-08-19T08:13:24.911Z,101037.63
2022-08-19T08:16:30.950Z,101039.28
2022-08-19T08:19:35.187Z,101042.66
2022-08-19T08:22:56.788Z,101051.59
2022-08-19T08:26:03.148Z,101051.28
2022-08-19T08:29:12.853Z,101051.81
2022-08-19T08:32:16.843Z,101058.28
2022-08-19T08:35:23.149Z,101060.78
2022-08-19T08:38:26.888Z,101066.09
2022-08-19T08:41:42.681Z,101054.25
2022-08-19T08:48:21.998Z,101063.50
2022-08-19T08:51:35.168Z,101059.56
2022-08-19T08:54:55.055Z,101067.69
2022-08-19T08:58:03.944Z,101073.03
2022-08-19T09:01:07.945Z,101075.00
2022-08-19T09:04:14.534Z,101062.06
2022-08-19T09:07:35.268Z,101063.16
2022-08-19T09:10:45.904Z,101061.50
2022-08-19T09:14:04.482Z,101060.38
2022-08-19T09:17:09.061Z,101057.56
2022-08-19T09:20:20.299Z,101053.63
2022-08-19T09:23:27.008Z,101064.00
2022-08-19T09:26:47.425Z,101053.63
2022-08-19T09:29:56.651Z,101059.22
2022-08-19T09:33:01.015Z,101061.50
2022-08-19T09:36:09.387Z,101062.34
2022-08-19T09:39:16.309Z,101064.28
2022-08-19T09:42:30.466Z,101063.16
2022-08-19T09:45:40.709Z,101065.97
2022-08-19T09:48:45.649Z,101070.47
2022-08-19T09:51:52.581Z,101072.97
2022-08-19T09:54:56.809Z,101075.47
2022-08-19T09:58:02.200Z,101070.69
2022-08-19T10:01:09.564Z,101069.25
2022-08-19T10:04:19.835Z,101070.91
2022-08-19T10:07:28.990Z,101064.69
2022-08-19T10:10:40.164Z,101063.22
2022-08-19T10:13:47.915Z,101061.78
2022-08-19T10:16:53.267Z,101067.97
2022-08-19T10:19:57.053Z,101069.31
2022-08-19T10:23:01.280Z,101071.81
2022-08-19T10:26:07.038Z,101073.47
2022-08-19T10:29:11.493Z,101077.66
2022-08-19T10:32:16.947Z,101079.34
2022-08-19T10:35:21.845Z,101083.19
2022-08-19T10:38:31.517Z,101078.13
2022-08-19T10:41:38.480Z,101086.22
2022-08-19T10:44:43.729Z,101086.22
2022-08-19T10:47:48.898Z,101081.44
2022-08-19T10:51:10.143Z,101075.00
2022-08-19T10:54:14.137Z,101076.38
2022-08-19T10:57:16.944Z,101075.22
2022-08-19T11:00:21.843Z,101080.50
2022-08-19T11:03:28.766Z,101072.09
2022-08-19T11:06:34.061Z,101073.78
2022-08-19T11:09:41.758Z,101075.44
2022-08-19T11:12:47.416Z,101061.09
2022-08-19T11:16:00.156Z,101054.03
2022-08-19T11:19:09.743Z,101054.03
2022-08-19T11:22:16.136Z,101057.97
2022-08-19T11:25:23.336Z,101065.84
2022-08-19T11:28:27.139Z,101066.72
2022-08-19T11:31:34.350Z,101060.25
2022-08-19T11:34:39.812Z,101053.78
2022-08-19T11:37:43.581Z,101058.59
2022-08-19T11:40:47.330Z,101052.97
2022-08-19T11:43:53.365Z,101046.50
2022-08-19T11:46:57.122Z,101055.25
2022-08-19T11:50:02.165Z,101051.59
2022-08-19T11:53:05.914Z,101047.97
2022-08-19T11:56:14.431Z,101050.22
2022-08-19T11:59:18.219Z,101040.69
2022-08-19T12:02:22.733Z,101053.91
2022-08-19T12:05:27.860Z,101050.22
2022-08-19T12:08:31.950Z,101052.22
2022-08-19T12:11:35.896Z,101044.63
2022-08-19T12:14:40.043Z,101044.94
2022-08-19T12:17:44.358Z,101035.69
2022-08-19T12:20:49.527Z,101034.00
2022-08-19T12:23:55.775Z,101048.88
2022-08-19T12:27:03.104Z,101043.56
2022-08-19T12:30:10.593Z,101054.78
2022-08-19T12:33:14.967Z,101054.78
2022-08-19T12:36:20.741Z,101044.63
2022-08-19T12:39:24.683Z,101045.69
2022-08-19T12:42:28.875Z,101050.69
2022-08-19T12:45:32.655Z,101052.88
2022-08-19T12:48:38.287Z,101045.81
2022-08-19T12:51:45.189Z,101040.41
2022-08-19T12:54:49.221Z,101049.69
2022-08-19T12:57:58.057Z,101048.25
2022-08-19T13:01:01.928Z,101049.06
2022-08-19T13:04:05.957Z,101040.31
2022-08-19T13:07:11.073Z,101050.94
2022-08-19T13:10:18.993Z,101040.53
2022-08-19T13:13:22.767Z,101032.66
2022-08-19T13:16:28.626Z,101040.78
2022-08-19T13:19:32.624Z,101040.50
2022-08-19T13:22:37.972Z,101043.31
2022-08-19T13:25:41.728Z,101043.00
2022-08-19T13:29:04.815Z,101047.47
2022-08-19T13:32:26.455Z,101042.38
2022-08-19T13:35:30.267Z,101040.38
2022-08-19T13:38:36.033Z,101038.13
2022-08-19T13:41:46.526Z,101043.44
2022-08-19T13:44:50.344Z,101045.09
2022-08-19T13:47:59.515Z,101040.81
2022-08-19T13:51:07.292Z,101046.44
2022-08-19T13:54:13.348Z,101033.53
2022-08-19T13:57:17.123Z,101034.38
2022-08-19T14:00:21.829Z,101030.44
2022-08-19T14:03:25.679Z,101038.31
2022-08-19T14:06:29.536Z,101033.31
2022-08-19T14:09:34.711Z,101024.38
2022-08-19T14:12:38.837Z,101023.31
2022-08-19T14:15:42.748Z,101020.00
2022-08-19T14:18:47.158Z,101026.16
2022-08-19T14:21:50.939Z,101025.97
2022-08-19T14:24:56.169Z,101017.84
2022-08-19T14:28:00.467Z,101014.53
2022-08-19T14:31:04.179Z,101011.16
2022-08-19T14:34:08.018Z,101009.50
2022-08-19T14:37:13.025Z,101019.09
2022-08-19T14:40:22.218Z,101013.47
2022-08-19T14:43:25.946Z,101013.78
2022-08-19T14:46:30.660Z,101010.97
2022-08-19T14:49:35.289Z,101009.28
2022-08-19T14:52:48.840Z,101015.72
2022-08-19T14:55:54.063Z,101006.78
2022-08-19T14:59:00.314Z,101010.72
2022-08-19T15:02:33.642Z,101018.03
2022-08-19T15:05:30.703Z,101018.66
2022-08-19T15:08:37.914Z,101018.66
2022-08-19T15:11:44.519Z,101018.66
2022-08-19T15:14:51.123Z,101020.31
2022-08-19T15:18:03.199Z,101025.09
2022-08-19T15:21:08.129Z,101019.47
2022-08-19T15:24:12.221Z,101024.28
2022-08-19T15:27:17.398Z,101013.03
2022-08-19T15:30:24.558Z,101013.03
2022-08-19T15:33:28.488Z,101012.19
2022-08-19T15:36:32.614Z,101016.97
2022-08-19T15:39:37.051Z,101022.59
2022-08-19T15:42:43.614Z,101026.22
2022-08-19T15:45:49.406Z,101023.41
2022-08-19T15:48:57.222Z,101022.59
2022-08-19T15:52:03.881Z,101028.22
2022-08-19T15:55:08.479Z,101032.16
2022-08-19T15:58:38.531Z,101028.22
2022-08-19T16:01:59.629Z,101018.97
2022-08-19T16:05:21.381Z,101012.47
2022-08-19T16:08:25.308Z,101018.09
2022-08-19T16:11:31.400Z,101013.66
2022-08-19T16:14:38.153Z,101021.22
2022-08-19T16:17:42.358Z,101024.03
2022-08-19T16:20:46.693Z,101027.16
2022-08-19T16:23:51.215Z,101032.75
2022-08-19T16:26:56.012Z,101029.13
2022-08-19T16:30:01.348Z,101032.75
2022-08-19T16:33:05.424Z,101029.97
2022-08-19T16:36:10.253Z,101017.59
2022-08-19T16:39:16.751Z,101017.59
2022-08-19T16:42:20.887Z,101013.66
2022-08-19T16:45:26.523Z,101017.59
2022-08-19T16:48:32.918Z,101012.78
2022-08-19T16:51:36.792Z,101011.97
2022-08-19T16:54:40.644Z,101011.97
2022-08-19T16:57:47.219Z,101008.34
2022-08-19T17:00:53.432Z,101011.97
2022-08-19T17:03:58.497Z,101010.28
2022-08-19T17:07:03.261Z,101017.59
2022-08-19T17:10:07.862Z,101014.78
2022-08-19T17:13:11.745Z,101023.22
2022-08-19T17:16:17.557Z,101028.81
2022-08-19T17:19:21.315Z,101027.16
2022-08-19T17:22:25.206Z,101017.59
2022-08-19T17:25:31.584Z,101015.91
2022-08-19T17:28:35.510Z,101015.91
2022-08-19T17:31:40.760Z,101007.47
2022-08-19T17:34:44.982Z,101000.72
2022-08-19T17:37:51.549Z,100998.44
2022-08-19T17:40:58.291Z,100999.28
2022-08-19T17:44:03.779Z,101004.59
2022-08-19T17:47:09.280Z,101010.22
2022-08-19T17:50:14.133Z,101008.22
2022-08-19T17:53:17.923Z,101001.78
2022-08-19T17:56:22.178Z,100994.50
2022-08-19T17:59:28.500Z,100998.44
2022-08-19T18:02:35.645Z,101006.88
2022-08-19T18:05:43.484Z,101009.69
2022-08-19T18:08:49.083Z,101005.53
2022-08-19T18:11:55.020Z,100993.44
2022-08-19T18:15:00.249Z,100987.81
2022-08-19T18:18:15.016Z,100994.59
2022-08-19T18:21:19.869Z,100996.56
2022-08-19T18:24:23.784Z,101003.66
2022-08-19T18:27:28.856Z,101013.72
2022-08-19T18:30:34.392Z,101020.50
2022-08-19T18:33:44.234Z,101026.13
2022-08-19T18:36:53.887Z,101030.06
2022-08-19T18:40:15.673Z,101034.00
2022-08-19T18:43:37.136Z,101039.63
2022-08-19T18:46:58.750Z,101037.94
2022-08-19T18:50:08.363Z,101042.72
2022-08-19T18:53:16.222Z,101034.31
2022-08-19T18:56:23.938Z,101027.31
2022-08-19T18:59:29.637Z,101032.94
2022-08-19T19:02:39.669Z,101034.63
2022-08-19T19:05:45.429Z,101035.75
2022-08-19T19:08:50.266Z,101035.22
2022-08-19T19:11:56.538Z,101032.41
2022-08-19T19:15:05.557Z,101027.94
2022-08-19T19:18:09.342Z,101033.53
2022-08-19T19:21:14.532Z,101043.97
2022-08-19T19:24:21.527Z,101043.97
2022-08-19T19:27:25.346Z,101041.47
2022-08-19T19:30:30.873Z,101040.59
2022-08-19T19:33:34.615Z,101041.75
2022-08-19T19:36:40.126Z,101038.09
2022-08-19T19:39:46.138Z,101040.91
2022-08-19T19:42:51.969Z,101035.59
2022-08-19T19:45:55.640Z,101046.00
2022-08-19T19:49:00.308Z,101052.75
2022-08-19T19:52:07.629Z,101065.16
2022-08-19T19:55:18.950Z,101070.75
2022-08-19T19:58:28.495Z,101074.69
2022-08-19T20:01:32.899Z,101085.06
2022-08-19T20:04:37.501Z,101084.25
2022-08-19T20:08:00.388Z,101088.19
2022-08-19T20:11:07.545Z,101096.09
2022-08-19T20:14:14.555Z,101101.72
2022-08-19T20:17:20.684Z,101105.66
2022-08-19T20:20:24.929Z,101098.38
2022-08-19T20:23:31.148Z,101096.72
2022-08-19T20:26:35.815Z,101099.50
2022-08-19T20:29:41.733Z,101109.91
2022-08-19T20:32:50.036Z,101109.38
2022-08-19T20:35:54.260Z,101106.88
2022-08-19T20:38:59.699Z,101102.94
2022-08-19T20:42:03.480Z,101113.59
2022-08-19T20:45:18.187Z,101115.59
2022-08-19T20:48:32.656Z,101118.72
2022-08-19T20:51:36.579Z,101119.84
2022-08-19T20:54:41.796Z,101124.31
2022-08-19T20:57:46.731Z,101121.81
2022-08-19T21:00:51.467Z,101117.03
2022-08-19T21:03:55.305Z,101121.00
2022-08-19T21:06:59.133Z,101120.44
2022-08-19T21:10:05.261Z,101117.63
2022-08-19T21:13:09.173Z,101117.63
2022-08-19T21:16:12.963Z,101115.94
2022-08-19T21:19:19.871Z,101118.22
2022-08-19T21:22:25.833Z,101109.78
2022-08-19T21:25:31.546Z,101114.88
2022-08-19T21:28:36.490Z,101114.31
2022-08-19T21:31:41.060Z,101110.41
2022-08-19T21:34:47.025Z,101108.19
2022-08-19T21:37:51.492Z,101106.50
2022-08-19T21:40:57.433Z,101100.38
2022-08-19T21:44:02.019Z,101104.00
2022-08-19T21:47:07.274Z,101105.44
2022-08-19T21:50:15.121Z,101107.41
2022-08-19T21:53:22.865Z,101102.09
2022-08-19T21:56:28.797Z,101101.28
2022-08-19T21:59:33.121Z,101104.41
2022-08-19T22:02:38.420Z,101108.31
2022-08-19T22:05:43.672Z,101107.47
2022-08-19T22:08:47.836Z,101107.78
2022-08-19T22:11:53.014Z,101108.94
2022-08-19T22:14:57.894Z,101107.25
2022-08-19T22:18:02.345Z,101111.19
2022-08-19T22:21:11.245Z,101105.56
2022-08-19T22:24:17.382Z,101107.84
2022-08-19T22:27:23.375Z,101098.84
2022-08-19T22:30:28.010Z,101091.03
2022-08-19T22:33:38.663Z,101100.56
2022-08-19T22:36:43.357Z,101093.31
2022-08-19T22:39:48.179Z,101093.31
2022-08-19T22:43:02.332Z,101093.31
2022-08-19T22:46:17.607Z,101089.13
2022-08-19T22:49:22.368Z,101084.94
2022-08-19T22:52:28.110Z,101092.22
2022-08-19T22:55:32.913Z,101098.97
2022-08-19T22:58:40.761Z,101091.69
2022-08-19T23:01:46.300Z,101100.69
2022-08-19T23:04:50.414Z,101095.09
2022-08-19T23:07:58.794Z,101093.41
2022-08-19T23:11:03.716Z,101080.53
2022-08-19T23:14:09.469Z,101083.84
2022-08-19T23:17:14.124Z,101081.06
2022-08-19T23:20:19.622Z,101076.56
2022-08-19T23:23:24.913Z,101070.97
2022-08-19T23:26:35.199Z,101076.56
2022-08-19T23:29:58.475Z,101074.06
2022-08-19T23:33:12.682Z,101088.41
2022-08-19T23:36:18.815Z,101089.84
2022-08-19T23:39:23.449Z,101089.00
2022-08-19T23:42:28.834Z,101078.06
2022-08-19T23:45:34.542Z,101082.88
2022-08-19T23:48:39.782Z,101078.38
2022-08-19T23:51:45.786Z,101076.69
2022-08-19T23:54:50.376Z,101071.09
2022-08-19T23:57:54.359Z,101075.06
